sensor_id;sensor_type;location;lat;lon;timestamp;temperature;humidity
8676;DHT22;4375;52.486;13.424;2024-02-26T00:01:00;6.00;99.90
8676;DHT22;4375;52.486;13.424;2024-02-26T00:03:27;5.90;99.90
8676;DHT22;4375;52.486;13.424;2024-02-26T00:05:52;5.90;99.90
8676;DHT22;4375;52.486;13.424;2024-02-26T00:08:18;5.80;99.90
8676;DHT22;4375;52.486;13.424;2024-02-26T00:10:44;5.80;99.90
8676;DHT22;4375;52.486;13.424;2024-02-26T00:13:09;5.80;99.90
8676;DHT22;4375;52.486;13.424;2024-02-26T00:15:35;5.80;99.90
8676;DHT22;4375;52.486;13.424;2024-02-26T00:18:01;5.80;99.90
8676;DHT22;4375;52.486;13.424;2024-02-26T00:20:26;5.80;99.90
8676;DHT22;4375;52.486;13.424;2024-02-26T00:22:52;5.80;99.90
8676;DHT22;4375;52.486;13.424;2024-02-26T00:25:18;5.90;99.90
8676;DHT22;4375;52.486;13.424;2024-02-26T00:27:43;6.00;99.90
8676;DHT22;4375;52.486;13.424;2024-02-26T00:30:10;5.90;99.90
8676;DHT22;4375;52.486;13.424;2024-02-26T00:32:35;5.90;99.90
8676;DHT22;4375;52.486;13.424;2024-02-26T00:35:01;5.90;99.90
8676;DHT22;4375;52.486;13.424;2024-02-26T00:37:27;5.90;99.90
8676;DHT22;4375;52.486;13.424;2024-02-26T00:39:52;5.80;99.90
8676;DHT22;4375;52.486;13.424;2024-02-26T00:42:19;5.70;99.90
8676;DHT22;4375;52.486;13.424;2024-02-26T00:44:45;5.80;99.90
8676;DHT22;4375;52.486;13.424;2024-02-26T00:47:10;5.70;99.90
8676;DHT22;4375;52.486;13.424;2024-02-26T00:49:37;5.70;99.90
8676;DHT22;4375;52.486;13.424;2024-02-26T00:52:02;5.60;99.90
8676;DHT22;4375;52.486;13.424;2024-02-26T00:54:28;5.60;99.90
8676;DHT22;4375;52.486;13.424;2024-02-26T00:56:54;5.50;99.90
8676;DHT22;4375;52.486;13.424;2024-02-26T00:59:20;5.50;99.90
8676;DHT22;4375;52.486;13.424;2024-02-26T01:01:45;5.40;99.90
8676;DHT22;4375;52.486;13.424;2024-02-26T01:04:11;5.40;99.90
8676;DHT22;4375;52.486;13.424;2024-02-26T01:06:37;5.40;99.90
8676;DHT22;4375;52.486;13.424;2024-02-26T01:09:03;5.40;99.90
8676;DHT22;4375;52.486;13.424;2024-02-26T01:11:29;5.40;99.90
8676;DHT22;4375;52.486;13.424;2024-02-26T01:13:54;5.30;99.90
8676;DHT22;4375;52.486;13.424;2024-02-26T01:16:25;5.40;99.90
8676;DHT22;4375;52.486;13.424;2024-02-26T01:18:51;5.30;99.90
8676;DHT22;4375;52.486;13.424;2024-02-26T01:21:16;5.30;99.90
8676;DHT22;4375;52.486;13.424;2024-02-26T01:23:42;5.30;99.90
8676;DHT22;4375;52.486;13.424;2024-02-26T01:26:08;5.20;99.90
8676;DHT22;4375;52.486;13.424;2024-02-26T01:28:33;5.20;99.90
8676;DHT22;4375;52.486;13.424;2024-02-26T01:30:59;5.30;99.90
8676;DHT22;4375;52.486;13.424;2024-02-26T01:33:26;5.30;99.90
8676;DHT22;4375;52.486;13.424;2024-02-26T01:35:51;5.30;99.90
8676;DHT22;4375;52.486;13.424;2024-02-26T01:38:18;5.10;99.90
8676;DHT22;4375;52.486;13.424;2024-02-26T01:40:44;5.00;99.90
8676;DHT22;4375;52.486;13.424;2024-02-26T01:43:09;5.10;99.90
8676;DHT22;4375;52.486;13.424;2024-02-26T01:45:35;5.10;99.90
8676;DHT22;4375;52.486;13.424;2024-02-26T01:48:01;5.10;99.90
8676;DHT22;4375;52.486;13.424;2024-02-26T01:50:27;5.20;99.90
8676;DHT22;4375;52.486;13.424;2024-02-26T01:52:54;5.20;99.90
8676;DHT22;4375;52.486;13.424;2024-02-26T01:55:22;5.20;99.90
8676;DHT22;4375;52.486;13.424;2024-02-26T01:57:49;5.10;99.90
8676;DHT22;4375;52.486;13.424;2024-02-26T02:00:17;5.10;99.90
8676;DHT22;4375;52.486;13.424;2024-02-26T02:02:43;5.00;99.90
8676;DHT22;4375;52.486;13.424;2024-02-26T02:05:12;5.00;99.90
8676;DHT22;4375;52.486;13.424;2024-02-26T02:07:40;5.00;99.90
8676;DHT22;4375;52.486;13.424;2024-02-26T02:10:06;5.00;99.90
8676;DHT22;4375;52.486;13.424;2024-02-26T02:12:32;5.00;99.90
8676;DHT22;4375;52.486;13.424;2024-02-26T02:15:00;5.10;99.90
8676;DHT22;4375;52.486;13.424;2024-02-26T02:17:26;5.00;99.90
8676;DHT22;4375;52.486;13.424;2024-02-26T02:19:52;5.10;99.90
8676;DHT22;4375;52.486;13.424;2024-02-26T02:22:18;5.20;99.90
8676;DHT22;4375;52.486;13.424;2024-02-26T02:24:44;5.10;99.90
8676;DHT22;4375;52.486;13.424;2024-02-26T02:27:10;5.10;99.90
8676;DHT22;4375;52.486;13.424;2024-02-26T02:29:36;5.10;99.90
8676;DHT22;4375;52.486;13.424;2024-02-26T02:32:03;5.10;99.90
8676;DHT22;4375;52.486;13.424;2024-02-26T02:34:31;5.10;99.90
8676;DHT22;4375;52.486;13.424;2024-02-26T02:36:57;5.10;99.90
8676;DHT22;4375;52.486;13.424;2024-02-26T02:39:22;5.00;99.90
8676;DHT22;4375;52.486;13.424;2024-02-26T02:41:48;5.00;99.90
8676;DHT22;4375;52.486;13.424;2024-02-26T02:44:14;5.00;99.90
8676;DHT22;4375;52.486;13.424;2024-02-26T02:46:39;4.90;99.90
8676;DHT22;4375;52.486;13.424;2024-02-26T02:49:09;4.90;99.90
8676;DHT22;4375;52.486;13.424;2024-02-26T02:51:35;4.90;99.90
8676;DHT22;4375;52.486;13.424;2024-02-26T02:54:01;4.80;99.90
8676;DHT22;4375;52.486;13.424;2024-02-26T02:56:26;4.70;99.90
8676;DHT22;4375;52.486;13.424;2024-02-26T02:58:52;4.50;99.90
8676;DHT22;4375;52.486;13.424;2024-02-26T03:01:18;4.60;99.90
8676;DHT22;4375;52.486;13.424;2024-02-26T03:03:44;4.50;99.90
8676;DHT22;4375;52.486;13.424;2024-02-26T03:06:09;4.50;99.90
8676;DHT22;4375;52.486;13.424;2024-02-26T03:08:35;4.50;99.90
8676;DHT22;4375;52.486;13.424;2024-02-26T03:11:04;4.40;99.90
8676;DHT22;4375;52.486;13.424;2024-02-26T03:13:29;4.30;99.90
8676;DHT22;4375;52.486;13.424;2024-02-26T03:15:55;4.30;99.90
8676;DHT22;4375;52.486;13.424;2024-02-26T03:18:20;4.30;99.90
8676;DHT22;4375;52.486;13.424;2024-02-26T03:20:47;4.40;99.90
8676;DHT22;4375;52.486;13.424;2024-02-26T03:23:12;4.30;99.90
8676;DHT22;4375;52.486;13.424;2024-02-26T03:25:42;4.30;99.90
8676;DHT22;4375;52.486;13.424;2024-02-26T03:28:08;4.20;99.90
8676;DHT22;4375;52.486;13.424;2024-02-26T03:30:33;4.20;99.90
8676;DHT22;4375;52.486;13.424;2024-02-26T03:33:00;4.30;99.90
8676;DHT22;4375;52.486;13.424;2024-02-26T03:35:25;4.20;99.90
8676;DHT22;4375;52.486;13.424;2024-02-26T03:37:51;4.20;99.90
8676;DHT22;4375;52.486;13.424;2024-02-26T03:40:17;4.20;99.90
8676;DHT22;4375;52.486;13.424;2024-02-26T03:42:44;4.30;99.90
8676;DHT22;4375;52.486;13.424;2024-02-26T03:45:10;4.20;99.90
8676;DHT22;4375;52.486;13.424;2024-02-26T03:47:37;4.20;99.90
8676;DHT22;4375;52.486;13.424;2024-02-26T03:50:04;4.20;99.90
8676;DHT22;4375;52.486;13.424;2024-02-26T03:52:30;4.20;99.90
8676;DHT22;4375;52.486;13.424;2024-02-26T03:54:55;4.10;99.90
8676;DHT22;4375;52.486;13.424;2024-02-26T03:57:21;4.10;99.90
8676;DHT22;4375;52.486;13.424;2024-02-26T03:59:47;4.20;99.90
8676;DHT22;4375;52.486;13.424;2024-02-26T04:02:12;4.10;99.90
8676;DHT22;4375;52.486;13.424;2024-02-26T04:04:38;4.10;99.90
8676;DHT22;4375;52.486;13.424;2024-02-26T04:07:03;4.10;99.90
8676;DHT22;4375;52.486;13.424;2024-02-26T04:09:31;4.20;99.90
8676;DHT22;4375;52.486;13.424;2024-02-26T04:11:57;4.00;99.90
8676;DHT22;4375;52.486;13.424;2024-02-26T04:14:22;4.10;99.90
8676;DHT22;4375;52.486;13.424;2024-02-26T04:16:48;4.20;99.90
8676;DHT22;4375;52.486;13.424;2024-02-26T04:19:17;4.20;99.90
8676;DHT22;4375;52.486;13.424;2024-02-26T04:21:42;4.20;99.90
8676;DHT22;4375;52.486;13.424;2024-02-26T04:24:08;4.20;99.90
8676;DHT22;4375;52.486;13.424;2024-02-26T04:26:34;4.10;99.90
8676;DHT22;4375;52.486;13.424;2024-02-26T04:29:00;4.00;99.90
8676;DHT22;4375;52.486;13.424;2024-02-26T04:31:26;4.00;99.90
8676;DHT22;4375;52.486;13.424;2024-02-26T04:33:52;3.90;99.90
8676;DHT22;4375;52.486;13.424;2024-02-26T04:36:17;4.00;99.90
8676;DHT22;4375;52.486;13.424;2024-02-26T04:38:44;4.10;99.90
8676;DHT22;4375;52.486;13.424;2024-02-26T04:41:10;4.10;99.90
8676;DHT22;4375;52.486;13.424;2024-02-26T04:43:36;4.10;99.90
8676;DHT22;4375;52.486;13.424;2024-02-26T04:46:09;4.10;99.90
8676;DHT22;4375;52.486;13.424;2024-02-26T04:48:36;4.10;99.90
8676;DHT22;4375;52.486;13.424;2024-02-26T04:51:02;4.20;99.90
8676;DHT22;4375;52.486;13.424;2024-02-26T04:53:28;4.20;99.90
8676;DHT22;4375;52.486;13.424;2024-02-26T04:55:54;4.10;99.90
8676;DHT22;4375;52.486;13.424;2024-02-26T04:58:20;4.20;99.90
8676;DHT22;4375;52.486;13.424;2024-02-26T05:00:45;4.20;99.90
8676;DHT22;4375;52.486;13.424;2024-02-26T05:03:11;4.20;99.90
8676;DHT22;4375;52.486;13.424;2024-02-26T05:05:44;4.10;99.90
8676;DHT22;4375;52.486;13.424;2024-02-26T05:08:09;4.10;99.90
8676;DHT22;4375;52.486;13.424;2024-02-26T05:10:36;4.10;99.90
8676;DHT22;4375;52.486;13.424;2024-02-26T05:13:05;4.10;99.90
8676;DHT22;4375;52.486;13.424;2024-02-26T05:15:31;4.00;99.90
8676;DHT22;4375;52.486;13.424;2024-02-26T05:17:57;4.20;99.90
8676;DHT22;4375;52.486;13.424;2024-02-26T05:20:23;4.20;99.90
8676;DHT22;4375;52.486;13.424;2024-02-26T05:22:49;4.10;99.90
8676;DHT22;4375;52.486;13.424;2024-02-26T05:25:15;4.10;99.90
8676;DHT22;4375;52.486;13.424;2024-02-26T05:27:42;4.20;99.90
8676;DHT22;4375;52.486;13.424;2024-02-26T05:30:09;4.20;99.90
8676;DHT22;4375;52.486;13.424;2024-02-26T05:32:35;4.30;99.90
8676;DHT22;4375;52.486;13.424;2024-02-26T05:35:01;4.30;99.90
8676;DHT22;4375;52.486;13.424;2024-02-26T05:37:28;4.30;99.90
8676;DHT22;4375;52.486;13.424;2024-02-26T05:39:53;4.20;99.90
8676;DHT22;4375;52.486;13.424;2024-02-26T05:42:19;4.10;99.90
8676;DHT22;4375;52.486;13.424;2024-02-26T05:44:45;4.10;99.90
8676;DHT22;4375;52.486;13.424;2024-02-26T05:47:10;4.20;99.90
8676;DHT22;4375;52.486;13.424;2024-02-26T05:49:36;4.20;99.90
8676;DHT22;4375;52.486;13.424;2024-02-26T05:52:02;4.20;99.90
8676;DHT22;4375;52.486;13.424;2024-02-26T05:54:27;4.30;99.90
8676;DHT22;4375;52.486;13.424;2024-02-26T05:56:53;4.30;99.90
8676;DHT22;4375;52.486;13.424;2024-02-26T05:59:18;4.30;99.90
8676;DHT22;4375;52.486;13.424;2024-02-26T06:01:44;4.30;99.90
8676;DHT22;4375;52.486;13.424;2024-02-26T06:04:10;4.30;99.90
8676;DHT22;4375;52.486;13.424;2024-02-26T06:06:36;4.30;99.90
8676;DHT22;4375;52.486;13.424;2024-02-26T06:09:02;4.20;99.90
8676;DHT22;4375;52.486;13.424;2024-02-26T06:11:30;4.30;99.90
8676;DHT22;4375;52.486;13.424;2024-02-26T06:13:56;4.40;99.90
8676;DHT22;4375;52.486;13.424;2024-02-26T06:16:21;4.30;99.90
8676;DHT22;4375;52.486;13.424;2024-02-26T06:18:47;4.30;99.90
8676;DHT22;4375;52.486;13.424;2024-02-26T06:21:13;4.40;99.90
8676;DHT22;4375;52.486;13.424;2024-02-26T06:23:39;4.30;99.90
8676;DHT22;4375;52.486;13.424;2024-02-26T06:26:05;4.30;99.90
8676;DHT22;4375;52.486;13.424;2024-02-26T06:28:31;4.30;99.90
8676;DHT22;4375;52.486;13.424;2024-02-26T06:30:59;4.30;99.90
8676;DHT22;4375;52.486;13.424;2024-02-26T06:33:25;4.30;99.90
8676;DHT22;4375;52.486;13.424;2024-02-26T06:35:50;4.40;99.90
8676;DHT22;4375;52.486;13.424;2024-02-26T06:38:16;4.40;99.90
8676;DHT22;4375;52.486;13.424;2024-02-26T06:40:43;4.40;99.90
8676;DHT22;4375;52.486;13.424;2024-02-26T06:43:09;4.50;99.90
8676;DHT22;4375;52.486;13.424;2024-02-26T06:45:35;4.60;99.90
8676;DHT22;4375;52.486;13.424;2024-02-26T06:48:01;4.70;99.90
8676;DHT22;4375;52.486;13.424;2024-02-26T06:50:27;4.70;99.90
8676;DHT22;4375;52.486;13.424;2024-02-26T06:52:53;4.70;99.90
8676;DHT22;4375;52.486;13.424;2024-02-26T06:55:19;4.70;99.90
8676;DHT22;4375;52.486;13.424;2024-02-26T06:57:44;4.70;99.90
8676;DHT22;4375;52.486;13.424;2024-02-26T07:00:11;4.80;99.90
8676;DHT22;4375;52.486;13.424;2024-02-26T07:02:40;4.90;99.90
8676;DHT22;4375;52.486;13.424;2024-02-26T07:05:06;4.90;99.90
8676;DHT22;4375;52.486;13.424;2024-02-26T07:07:32;4.80;99.90
8676;DHT22;4375;52.486;13.424;2024-02-26T07:09:58;4.90;99.90
8676;DHT22;4375;52.486;13.424;2024-02-26T07:12:23;4.90;99.90
8676;DHT22;4375;52.486;13.424;2024-02-26T07:14:49;4.90;99.90
8676;DHT22;4375;52.486;13.424;2024-02-26T07:17:16;4.90;99.90
8676;DHT22;4375;52.486;13.424;2024-02-26T07:19:42;5.00;99.90
8676;DHT22;4375;52.486;13.424;2024-02-26T07:22:08;4.90;99.90
8676;DHT22;4375;52.486;13.424;2024-02-26T07:24:33;4.90;99.90
8676;DHT22;4375;52.486;13.424;2024-02-26T07:26:59;4.90;99.90
8676;DHT22;4375;52.486;13.424;2024-02-26T07:29:25;4.90;99.90
8676;DHT22;4375;52.486;13.424;2024-02-26T07:31:50;5.00;99.90
8676;DHT22;4375;52.486;13.424;2024-02-26T07:34:16;5.00;99.90
8676;DHT22;4375;52.486;13.424;2024-02-26T07:36:42;5.00;99.90
8676;DHT22;4375;52.486;13.424;2024-02-26T07:39:08;5.10;99.90
8676;DHT22;4375;52.486;13.424;2024-02-26T07:41:33;5.00;99.90
8676;DHT22;4375;52.486;13.424;2024-02-26T07:43:59;5.10;99.90
8676;DHT22;4375;52.486;13.424;2024-02-26T07:46:25;5.30;99.90
8676;DHT22;4375;52.486;13.424;2024-02-26T07:48:50;5.50;99.90
8676;DHT22;4375;52.486;13.424;2024-02-26T07:51:16;5.50;99.90
8676;DHT22;4375;52.486;13.424;2024-02-26T07:53:42;5.50;99.90
8676;DHT22;4375;52.486;13.424;2024-02-26T07:56:09;5.70;99.90
8676;DHT22;4375;52.486;13.424;2024-02-26T07:58:35;5.60;99.90
8676;DHT22;4375;52.486;13.424;2024-02-26T08:01:00;5.70;99.90
8676;DHT22;4375;52.486;13.424;2024-02-26T08:03:26;5.80;99.90
8676;DHT22;4375;52.486;13.424;2024-02-26T08:05:52;6.00;99.90
8676;DHT22;4375;52.486;13.424;2024-02-26T08:08:17;6.00;99.90
8676;DHT22;4375;52.486;13.424;2024-02-26T08:10:43;6.10;99.90
8676;DHT22;4375;52.486;13.424;2024-02-26T08:13:09;6.20;99.90
8676;DHT22;4375;52.486;13.424;2024-02-26T08:15:37;6.20;99.90
8676;DHT22;4375;52.486;13.424;2024-02-26T08:18:03;6.40;99.90
8676;DHT22;4375;52.486;13.424;2024-02-26T08:20:30;6.50;99.90
8676;DHT22;4375;52.486;13.424;2024-02-26T08:22:56;6.70;99.90
8676;DHT22;4375;52.486;13.424;2024-02-26T08:25:23;6.60;99.90
8676;DHT22;4375;52.486;13.424;2024-02-26T08:27:48;6.70;99.90
8676;DHT22;4375;52.486;13.424;2024-02-26T08:30:15;6.90;99.90
8676;DHT22;4375;52.486;13.424;2024-02-26T08:32:43;7.00;99.90
8676;DHT22;4375;52.486;13.424;2024-02-26T08:35:09;7.00;99.90
8676;DHT22;4375;52.486;13.424;2024-02-26T08:37:35;7.20;99.90
8676;DHT22;4375;52.486;13.424;2024-02-26T08:40:00;7.20;99.90
8676;DHT22;4375;52.486;13.424;2024-02-26T08:42:26;7.20;99.90
8676;DHT22;4375;52.486;13.424;2024-02-26T08:44:51;7.50;99.90
8676;DHT22;4375;52.486;13.424;2024-02-26T08:47:17;7.50;99.90
8676;DHT22;4375;52.486;13.424;2024-02-26T08:49:44;7.50;99.90
8676;DHT22;4375;52.486;13.424;2024-02-26T08:52:10;7.60;99.90
8676;DHT22;4375;52.486;13.424;2024-02-26T08:54:35;7.70;99.90
8676;DHT22;4375;52.486;13.424;2024-02-26T08:57:01;7.90;99.90
8676;DHT22;4375;52.486;13.424;2024-02-26T08:59:28;8.20;99.90
8676;DHT22;4375;52.486;13.424;2024-02-26T09:01:53;9.10;99.90
8676;DHT22;4375;52.486;13.424;2024-02-26T09:04:19;9.90;99.90
8676;DHT22;4375;52.486;13.424;2024-02-26T09:06:45;10.20;99.90
8676;DHT22;4375;52.486;13.424;2024-02-26T09:09:10;10.30;99.90
8676;DHT22;4375;52.486;13.424;2024-02-26T09:11:36;10.00;99.90
8676;DHT22;4375;52.486;13.424;2024-02-26T09:14:02;9.80;99.90
8676;DHT22;4375;52.486;13.424;2024-02-26T09:16:29;9.50;99.90
8676;DHT22;4375;52.486;13.424;2024-02-26T09:18:55;9.40;99.90
8676;DHT22;4375;52.486;13.424;2024-02-26T09:21:20;9.20;99.90
8676;DHT22;4375;52.486;13.424;2024-02-26T09:23:50;9.00;99.90
8676;DHT22;4375;52.486;13.424;2024-02-26T09:26:16;9.00;99.90
8676;DHT22;4375;52.486;13.424;2024-02-26T09:28:42;9.10;99.90
8676;DHT22;4375;52.486;13.424;2024-02-26T09:31:08;9.30;99.90
8676;DHT22;4375;52.486;13.424;2024-02-26T09:33:34;9.20;99.90
8676;DHT22;4375;52.486;13.424;2024-02-26T09:35:59;9.10;99.90
8676;DHT22;4375;52.486;13.424;2024-02-26T09:38:28;9.20;99.90
8676;DHT22;4375;52.486;13.424;2024-02-26T09:40:58;9.20;99.90
8676;DHT22;4375;52.486;13.424;2024-02-26T09:43:25;9.20;99.90
8676;DHT22;4375;52.486;13.424;2024-02-26T09:45:53;9.30;99.90
8676;DHT22;4375;52.486;13.424;2024-02-26T09:48:20;9.50;99.90
8676;DHT22;4375;52.486;13.424;2024-02-26T09:50:46;9.60;99.90
8676;DHT22;4375;52.486;13.424;2024-02-26T09:53:12;9.80;99.90
8676;DHT22;4375;52.486;13.424;2024-02-26T09:55:39;9.70;99.90
8676;DHT22;4375;52.486;13.424;2024-02-26T09:58:05;9.60;99.90
8676;DHT22;4375;52.486;13.424;2024-02-26T10:00:32;9.80;99.90
8676;DHT22;4375;52.486;13.424;2024-02-26T10:03:03;10.00;99.90
8676;DHT22;4375;52.486;13.424;2024-02-26T10:05:29;10.10;99.90
8676;DHT22;4375;52.486;13.424;2024-02-26T10:07:56;9.90;99.90
8676;DHT22;4375;52.486;13.424;2024-02-26T10:10:23;10.00;99.90
8676;DHT22;4375;52.486;13.424;2024-02-26T10:12:49;10.00;99.90
8676;DHT22;4375;52.486;13.424;2024-02-26T10:15:15;10.00;99.90
8676;DHT22;4375;52.486;13.424;2024-02-26T10:17:41;10.10;99.90
8676;DHT22;4375;52.486;13.424;2024-02-26T10:20:12;10.20;99.90
8676;DHT22;4375;52.486;13.424;2024-02-26T10:22:38;10.30;99.90
8676;DHT22;4375;52.486;13.424;2024-02-26T10:25:04;10.50;99.90
8676;DHT22;4375;52.486;13.424;2024-02-26T10:27:30;10.60;99.90
8676;DHT22;4375;52.486;13.424;2024-02-26T10:29:57;10.60;99.90
8676;DHT22;4375;52.486;13.424;2024-02-26T10:32:22;10.10;99.90
8676;DHT22;4375;52.486;13.424;2024-02-26T10:34:48;10.30;99.90
8676;DHT22;4375;52.486;13.424;2024-02-26T10:37:13;10.30;99.90
8676;DHT22;4375;52.486;13.424;2024-02-26T10:39:46;10.20;99.90
8676;DHT22;4375;52.486;13.424;2024-02-26T10:42:12;10.40;99.90
8676;DHT22;4375;52.486;13.424;2024-02-26T10:44:40;10.40;99.90
8676;DHT22;4375;52.486;13.424;2024-02-26T10:47:07;10.50;99.90
8676;DHT22;4375;52.486;13.424;2024-02-26T10:49:35;10.60;99.90
8676;DHT22;4375;52.486;13.424;2024-02-26T10:52:01;10.70;99.90
8676;DHT22;4375;52.486;13.424;2024-02-26T10:54:29;10.60;99.90
8676;DHT22;4375;52.486;13.424;2024-02-26T10:56:59;10.60;99.90
8676;DHT22;4375;52.486;13.424;2024-02-26T10:59:25;10.60;99.90
8676;DHT22;4375;52.486;13.424;2024-02-26T11:01:51;10.70;99.90
8676;DHT22;4375;52.486;13.424;2024-02-26T11:04:18;10.80;99.90
8676;DHT22;4375;52.486;13.424;2024-02-26T11:06:45;10.60;99.90
8676;DHT22;4375;52.486;13.424;2024-02-26T11:09:12;10.60;99.90
8676;DHT22;4375;52.486;13.424;2024-02-26T11:11:42;10.80;99.90
8676;DHT22;4375;52.486;13.424;2024-02-26T11:14:08;10.90;99.90
8676;DHT22;4375;52.486;13.424;2024-02-26T11:16:35;10.90;99.90
8676;DHT22;4375;52.486;13.424;2024-02-26T11:19:02;10.90;99.90
8676;DHT22;4375;52.486;13.424;2024-02-26T11:21:28;10.70;99.90
8676;DHT22;4375;52.486;13.424;2024-02-26T11:24:14;10.60;99.90
8676;DHT22;4375;52.486;13.424;2024-02-26T11:26:53;10.70;99.90
8676;DHT22;4375;52.486;13.424;2024-02-26T11:29:26;10.60;99.90
8676;DHT22;4375;52.486;13.424;2024-02-26T11:31:53;10.60;99.90
8676;DHT22;4375;52.486;13.424;2024-02-26T11:34:19;10.70;99.90
8676;DHT22;4375;52.486;13.424;2024-02-26T11:36:46;10.60;99.90
8676;DHT22;4375;52.486;13.424;2024-02-26T11:39:12;10.60;99.90
8676;DHT22;4375;52.486;13.424;2024-02-26T11:41:38;10.60;99.90
8676;DHT22;4375;52.486;13.424;2024-02-26T11:44:04;10.70;99.90
8676;DHT22;4375;52.486;13.424;2024-02-26T11:46:42;10.70;99.90
8676;DHT22;4375;52.486;13.424;2024-02-26T11:51:56;11.00;99.90
8676;DHT22;4375;52.486;13.424;2024-02-26T11:54:44;11.10;99.90
8676;DHT22;4375;52.486;13.424;2024-02-26T11:57:37;11.00;99.90
8676;DHT22;4375;52.486;13.424;2024-02-26T12:02:51;11.20;99.90
8676;DHT22;4375;52.486;13.424;2024-02-26T12:05:23;11.40;99.90
8676;DHT22;4375;52.486;13.424;2024-02-26T12:07:55;11.30;99.90
8676;DHT22;4375;52.486;13.424;2024-02-26T12:10:30;11.20;99.90
8676;DHT22;4375;52.486;13.424;2024-02-26T12:13:02;11.30;99.90
8676;DHT22;4375;52.486;13.424;2024-02-26T12:15:37;11.40;99.90
8676;DHT22;4375;52.486;13.424;2024-02-26T12:18:05;11.50;99.90
8676;DHT22;4375;52.486;13.424;2024-02-26T12:20:31;11.60;99.90
8676;DHT22;4375;52.486;13.424;2024-02-26T12:22:57;11.70;99.90
8676;DHT22;4375;52.486;13.424;2024-02-26T12:25:28;11.70;99.90
8676;DHT22;4375;52.486;13.424;2024-02-26T12:27:54;11.80;99.90
8676;DHT22;4375;52.486;13.424;2024-02-26T12:30:22;11.80;99.90
8676;DHT22;4375;52.486;13.424;2024-02-26T12:32:48;11.70;99.90
8676;DHT22;4375;52.486;13.424;2024-02-26T12:35:16;11.70;99.90
8676;DHT22;4375;52.486;13.424;2024-02-26T12:37:43;11.80;99.90
8676;DHT22;4375;52.486;13.424;2024-02-26T12:40:09;11.80;99.90
8676;DHT22;4375;52.486;13.424;2024-02-26T12:42:36;11.70;99.90
8676;DHT22;4375;52.486;13.424;2024-02-26T12:45:08;11.80;99.90
8676;DHT22;4375;52.486;13.424;2024-02-26T12:47:44;11.80;99.90
8676;DHT22;4375;52.486;13.424;2024-02-26T12:50:15;11.50;99.90
8676;DHT22;4375;52.486;13.424;2024-02-26T12:52:44;11.60;99.90
8676;DHT22;4375;52.486;13.424;2024-02-26T12:55:14;11.50;99.90
8676;DHT22;4375;52.486;13.424;2024-02-26T12:57:41;11.50;99.90
8676;DHT22;4375;52.486;13.424;2024-02-26T13:00:12;11.50;99.90
8676;DHT22;4375;52.486;13.424;2024-02-26T13:02:39;11.60;99.90
8676;DHT22;4375;52.486;13.424;2024-02-26T13:05:06;11.50;99.90
8676;DHT22;4375;52.486;13.424;2024-02-26T13:07:33;11.60;99.90
8676;DHT22;4375;52.486;13.424;2024-02-26T13:10:00;11.50;99.90
8676;DHT22;4375;52.486;13.424;2024-02-26T13:12:26;11.50;99.90
8676;DHT22;4375;52.486;13.424;2024-02-26T13:15:04;11.50;99.90
8676;DHT22;4375;52.486;13.424;2024-02-26T13:17:33;11.50;99.90
8676;DHT22;4375;52.486;13.424;2024-02-26T13:19:59;11.60;99.90
8676;DHT22;4375;52.486;13.424;2024-02-26T13:22:25;11.60;99.90
8676;DHT22;4375;52.486;13.424;2024-02-26T13:24:54;11.60;99.90
8676;DHT22;4375;52.486;13.424;2024-02-26T13:27:24;11.60;99.90
8676;DHT22;4375;52.486;13.424;2024-02-26T13:32:27;11.60;99.90
8676;DHT22;4375;52.486;13.424;2024-02-26T13:35:04;11.70;99.90
8676;DHT22;4375;52.486;13.424;2024-02-26T13:37:31;11.90;99.90
8676;DHT22;4375;52.486;13.424;2024-02-26T13:39:57;11.90;99.90
8676;DHT22;4375;52.486;13.424;2024-02-26T13:42:22;11.80;99.90
8676;DHT22;4375;52.486;13.424;2024-02-26T13:44:48;11.70;99.90
8676;DHT22;4375;52.486;13.424;2024-02-26T13:47:15;11.70;99.90
8676;DHT22;4375;52.486;13.424;2024-02-26T13:49:41;11.70;99.90
8676;DHT22;4375;52.486;13.424;2024-02-26T13:52:07;11.60;99.90
8676;DHT22;4375;52.486;13.424;2024-02-26T13:54:32;11.60;99.90
8676;DHT22;4375;52.486;13.424;2024-02-26T13:56:59;11.60;99.90
8676;DHT22;4375;52.486;13.424;2024-02-26T13:59:24;11.50;99.90
8676;DHT22;4375;52.486;13.424;2024-02-26T14:01:50;11.60;99.90
8676;DHT22;4375;52.486;13.424;2024-02-26T14:04:15;11.50;99.90
8676;DHT22;4375;52.486;13.424;2024-02-26T14:06:42;11.40;99.90
8676;DHT22;4375;52.486;13.424;2024-02-26T14:09:07;11.50;99.90
8676;DHT22;4375;52.486;13.424;2024-02-26T14:11:33;11.70;99.90
8676;DHT22;4375;52.486;13.424;2024-02-26T14:13:59;11.50;99.90
8676;DHT22;4375;52.486;13.424;2024-02-26T14:16:25;11.60;99.90
8676;DHT22;4375;52.486;13.424;2024-02-26T14:18:51;11.60;99.90
8676;DHT22;4375;52.486;13.424;2024-02-26T14:21:16;11.60;99.90
8676;DHT22;4375;52.486;13.424;2024-02-26T14:23:42;11.60;99.90
8676;DHT22;4375;52.486;13.424;2024-02-26T14:26:10;11.50;99.90
8676;DHT22;4375;52.486;13.424;2024-02-26T14:28:36;11.50;99.90
8676;DHT22;4375;52.486;13.424;2024-02-26T14:31:02;11.40;99.90
8676;DHT22;4375;52.486;13.424;2024-02-26T14:33:29;11.40;99.90
8676;DHT22;4375;52.486;13.424;2024-02-26T14:35:55;11.50;99.90
8676;DHT22;4375;52.486;13.424;2024-02-26T14:38:20;11.50;99.90
8676;DHT22;4375;52.486;13.424;2024-02-26T14:40:46;11.50;99.90
8676;DHT22;4375;52.486;13.424;2024-02-26T14:43:13;11.30;99.90
8676;DHT22;4375;52.486;13.424;2024-02-26T14:45:38;11.20;99.90
8676;DHT22;4375;52.486;13.424;2024-02-26T14:48:04;11.20;99.90
8676;DHT22;4375;52.486;13.424;2024-02-26T14:50:31;11.40;99.90
8676;DHT22;4375;52.486;13.424;2024-02-26T14:52:56;11.30;99.90
8676;DHT22;4375;52.486;13.424;2024-02-26T14:55:23;11.30;99.90
8676;DHT22;4375;52.486;13.424;2024-02-26T14:57:49;11.30;99.90
8676;DHT22;4375;52.486;13.424;2024-02-26T15:00:15;11.20;99.90
8676;DHT22;4375;52.486;13.424;2024-02-26T15:02:40;11.10;99.90
8676;DHT22;4375;52.486;13.424;2024-02-26T15:05:06;11.20;99.90
8676;DHT22;4375;52.486;13.424;2024-02-26T15:07:33;11.20;99.90
8676;DHT22;4375;52.486;13.424;2024-02-26T15:09:59;11.20;99.90
8676;DHT22;4375;52.486;13.424;2024-02-26T15:12:26;11.00;99.90
8676;DHT22;4375;52.486;13.424;2024-02-26T15:14:53;10.90;99.90
8676;DHT22;4375;52.486;13.424;2024-02-26T15:17:18;10.90;99.90
8676;DHT22;4375;52.486;13.424;2024-02-26T15:19:45;10.90;99.90
8676;DHT22;4375;52.486;13.424;2024-02-26T15:22:11;11.00;99.90
8676;DHT22;4375;52.486;13.424;2024-02-26T15:24:37;10.90;99.90
8676;DHT22;4375;52.486;13.424;2024-02-26T15:27:02;10.90;99.90
8676;DHT22;4375;52.486;13.424;2024-02-26T15:29:28;11.00;99.90
8676;DHT22;4375;52.486;13.424;2024-02-26T15:31:54;11.00;99.90
8676;DHT22;4375;52.486;13.424;2024-02-26T15:34:20;11.00;99.90
8676;DHT22;4375;52.486;13.424;2024-02-26T15:36:45;11.00;99.90
8676;DHT22;4375;52.486;13.424;2024-02-26T15:39:11;11.00;99.90
8676;DHT22;4375;52.486;13.424;2024-02-26T15:41:37;10.80;99.90
8676;DHT22;4375;52.486;13.424;2024-02-26T15:44:03;10.80;99.90
8676;DHT22;4375;52.486;13.424;2024-02-26T15:46:28;10.80;99.90
8676;DHT22;4375;52.486;13.424;2024-02-26T15:48:54;10.80;99.90
8676;DHT22;4375;52.486;13.424;2024-02-26T15:51:21;10.80;99.90
8676;DHT22;4375;52.486;13.424;2024-02-26T15:53:47;10.70;99.90
8676;DHT22;4375;52.486;13.424;2024-02-26T15:56:13;10.70;99.90
8676;DHT22;4375;52.486;13.424;2024-02-26T15:58:40;10.60;99.90